Time;durP1;ratioP1;P1;durP2;ratioP2;P2;SDS_P1;SDS_P2;PMS_P1;PMS_P2;Temp;Humidity;BMP_temperature;BMP_pressure;BME280_temperature;BME280_humidity;BME280_pressure;Samples;Min_cycle;Max_cycle;Signal;HPM_P1;HPM_P2
2022/09/05 00:02:37;;;;;;;4.87;4.17;;;17.50;99.90;;;;;;6088086;23;20952;-69
2022/09/05 00:05:28;;;;;;;4.77;4.37;;;17.50;99.90;;;;;;6081454;23;20434;-69
2022/09/05 00:08:04;;;;;;;4.87;4.47;;;17.40;99.90;;;;;;6081653;23;20798;-69
2022/09/05 00:10:38;;;;;;;5.00;4.50;;;17.50;99.90;;;;;;6083761;23;20466;-69
2022/09/05 00:13:11;;;;;;;4.97;4.57;;;17.50;99.90;;;;;;6084817;23;20484;-69
2022/09/05 00:15:57;;;;;;;5.23;4.80;;;17.50;99.90;;;;;;6087032;23;20439;-69
2022/09/05 00:18:54;;;;;;;5.00;4.60;;;17.50;99.90;;;;;;6088731;23;20509;-69
2022/09/05 00:21:33;;;;;;;5.80;5.30;;;17.50;99.90;;;;;;6076724;23;20553;-69
2022/09/05 00:24:19;;;;;;;6.03;4.57;;;17.50;99.90;;;;;;6086362;23;20529;-69
2022/09/05 00:26:55;;;;;;;4.80;4.40;;;17.50;99.90;;;;;;6088994;23;20492;-69
2022/09/05 00:29:44;;;;;;;5.03;4.53;;;17.50;99.90;;;;;;6087320;23;20501;-69
2022/09/05 00:32:21;;;;;;;5.10;4.60;;;17.50;99.90;;;;;;6080828;23;20445;-69
2022/09/05 00:35:04;;;;;;;4.70;4.30;;;17.40;99.90;;;;;;6087030;23;20517;-69
2022/09/05 00:37:35;;;;;;;5.30;4.80;;;17.50;99.90;;;;;;6086440;23;20933;-69
2022/09/05 00:40:31;;;;;;;5.53;5.10;;;17.40;99.90;;;;;;6089451;23;20487;-69
2022/09/05 00:43:02;;;;;;;5.40;4.97;;;17.50;99.90;;;;;;6005799;23;20937;-69
2022/09/05 00:45:35;;;;;;;5.40;4.90;;;17.50;99.90;;;;;;6089931;23;20435;-69
2022/09/05 00:48:16;;;;;;;5.83;5.23;;;17.50;99.90;;;;;;6088414;23;20446;-69
2022/09/05 00:51:02;;;;;;;5.27;4.80;;;17.50;99.90;;;;;;6089803;23;20488;-69
2022/09/05 00:53:39;;;;;;;5.77;4.53;;;17.50;99.90;;;;;;6084450;23;20521;-70
2022/09/05 00:56:20;;;;;;;4.80;4.40;;;17.50;99.90;;;;;;6081241;23;20941;-69
2022/09/05 00:59:23;;;;;;;5.87;4.70;;;17.50;99.90;;;;;;6090121;23;20461;-70
2022/09/05 01:01:57;;;;;;;5.60;5.20;;;17.40;99.90;;;;;;6037427;23;20541;-70
2022/09/05 01:04:40;;;;;;;5.70;5.10;;;17.40;99.90;;;;;;6087458;23;20476;-70
2022/09/05 01:07:23;;;;;;;5.70;5.20;;;17.40;99.90;;;;;;6082857;23;20518;-70
2022/09/05 01:10:03;;;;;;;5.60;5.10;;;17.40;99.90;;;;;;6077407;23;20474;-70
2022/09/05 01:13:00;;;;;;;6.20;5.13;;;17.40;99.90;;;;;;6080210;23;20719;-70
2022/09/05 01:15:34;;;;;;;5.30;4.77;;;17.30;99.90;;;;;;6086602;23;20836;-70
2022/09/05 01:18:30;;;;;;;5.60;5.10;;;17.10;99.90;;;;;;6085459;23;20518;-70
2022/09/05 01:21:12;;;;;;;5.37;4.97;;;17.00;99.90;;;;;;6086296;23;20466;-70
2022/09/05 01:24:13;;;;;;;5.37;4.97;;;16.80;99.90;;;;;;6073693;23;20517;-70
2022/09/05 01:26:57;;;;;;;5.90;5.40;;;16.70;99.90;;;;;;6075896;23;20449;-70
2022/09/05 01:29:32;;;;;;;5.77;5.27;;;16.60;99.90;;;;;;6072897;23;20466;-70
2022/09/05 01:32:17;;;;;;;5.90;5.30;;;16.50;99.90;;;;;;6087197;23;20494;-70
2022/09/05 01:35:02;;;;;;;5.13;4.70;;;16.40;99.90;;;;;;6087135;23;20446;-70
2022/09/05 01:37:37;;;;;;;6.43;5.83;;;16.40;99.90;;;;;;6083195;23;20546;-70
2022/09/05 01:40:18;;;;;;;5.50;5.00;;;16.30;99.90;;;;;;6072278;23;20466;-70
2022/09/05 01:43:00;;;;;;;6.30;5.80;;;16.30;99.90;;;;;;6087365;23;20446;-70
2022/09/05 01:45:41;;;;;;;6.37;5.37;;;16.30;99.90;;;;;;6090533;23;20495;-70
2022/09/05 01:48:14;;;;;;;6.50;5.83;;;16.30;99.90;;;;;;6085194;23;20505;-70
2022/09/05 01:50:48;;;;;;;5.40;5.00;;;16.40;99.90;;;;;;6069292;23;20474;-70
2022/09/05 01:53:24;;;;;;;8.00;5.10;;;16.30;99.90;;;;;;6087344;23;20473;-70
2022/09/05 01:56:07;;;;;;;4.13;3.83;;;16.30;99.90;;;;;;6079002;23;20446;-70
2022/09/05 01:58:47;;;;;;;4.93;4.43;;;16.30;99.90;;;;;;6089738;23;20944;-70
2022/09/05 02:01:23;;;;;;;4.60;4.20;;;16.30;99.90;;;;;;6088026;23;20906;-70
2022/09/05 02:03:59;;;;;;;4.97;4.47;;;16.30;99.90;;;;;;6082829;23;20446;-70
2022/09/05 02:06:35;;;;;;;3.90;3.60;;;16.30;99.90;;;;;;6077779;23;20480;-70
2022/09/05 02:09:17;;;;;;;4.23;3.83;;;16.30;99.90;;;;;;6088775;23;20466;-70
2022/09/05 02:11:50;;;;;;;3.93;3.60;;;16.30;99.90;;;;;;6086642;23;20490;-70
2022/09/05 02:14:29;;;;;;;4.70;4.40;;;16.20;99.90;;;;;;6086542;23;20446;-70
2022/09/05 02:17:09;;;;;;;4.43;4.10;;;16.20;99.90;;;;;;6087487;23;20434;-70
2022/09/05 02:19:46;;;;;;;4.27;3.97;;;16.10;99.90;;;;;;6075262;23;20474;-70
2022/09/05 02:22:20;;;;;;;4.00;3.70;;;16.00;99.90;;;;;;6079016;23;20441;-71
2022/09/05 02:24:53;;;;;;;3.87;3.57;;;15.90;99.90;;;;;;6079644;23;20470;-71
2022/09/05 02:27:26;;;;;;;4.20;3.90;;;15.90;99.90;;;;;;6084369;23;20469;-71
2022/09/05 02:30:04;;;;;;;5.33;4.00;;;15.80;99.90;;;;;;6091471;23;20490;-71
2022/09/05 02:32:43;;;;;;;4.50;4.10;;;15.80;99.90;;;;;;6076193;23;20441;-71
2022/09/05 02:35:19;;;;;;;4.50;4.10;;;15.70;99.90;;;;;;6086289;23;20466;-70
2022/09/05 02:37:50;;;;;;;4.23;3.93;;;15.60;99.90;;;;;;6086602;23;20924;-70
2022/09/05 02:40:24;;;;;;;4.40;4.03;;;15.50;99.90;;;;;;6086726;23;20482;-70
2022/09/05 02:42:55;;;;;;;5.17;4.00;;;15.40;99.90;;;;;;6087013;23;20438;-70
2022/09/05 02:45:33;;;;;;;4.20;3.90;;;15.40;99.90;;;;;;6085138;23;20469;-70
2022/09/05 02:48:15;;;;;;;3.80;3.50;;;15.30;99.90;;;;;;6087257;23;20445;-70
2022/09/05 02:50:54;;;;;;;3.77;3.43;;;15.30;99.90;;;;;;6080653;23;20902;-71
2022/09/05 02:53:22;;;;;;;4.63;4.23;;;15.30;99.90;;;;;;6084646;23;20454;-70
2022/09/05 02:56:11;;;;;;;4.07;3.77;;;15.30;99.90;;;;;;6088356;23;20447;-70
2022/09/05 02:58:52;;;;;;;3.60;3.37;;;15.20;99.90;;;;;;6087461;23;20492;-70
2022/09/05 03:01:31;;;;;;;4.23;3.87;;;15.20;99.90;;;;;;6087613;23;20993;-70
2022/09/05 03:04:05;;;;;;;4.60;4.20;;;15.10;99.90;;;;;;6070354;23;20436;-71
2022/09/05 03:06:38;;;;;;;3.73;3.43;;;15.10;99.90;;;;;;6075124;23;21018;-69
2022/09/05 03:09:23;;;;;;;4.30;4.03;;;15.10;99.90;;;;;;6087555;23;20446;-71
2022/09/05 03:12:29;;;;;;;4.93;4.50;;;15.10;99.90;;;;;;6088898;23;20506;-70
2022/09/05 03:15:33;;;;;;;4.13;3.83;;;15.00;99.90;;;;;;6083028;23;20445;-70
2022/09/05 03:18:31;;;;;;;4.50;4.10;;;15.00;99.90;;;;;;6076767;23;20469;-70
2022/09/05 03:21:37;;;;;;;4.87;4.47;;;14.90;99.90;;;;;;6079764;23;20527;-70
2022/09/05 03:24:47;;;;;;;5.20;4.80;;;14.90;99.90;;;;;;6079354;23;20448;-71
2022/09/05 03:28:09;;;;;;;5.80;5.20;;;14.90;99.90;;;;;;6086965;23;20503;-70
2022/09/05 03:30:53;;;;;;;5.73;4.90;;;14.90;99.90;;;;;;6074879;23;20481;-70
2022/09/05 03:33:57;;;;;;;5.13;4.63;;;14.90;99.90;;;;;;6084602;23;20466;-70
2022/09/05 03:36:48;;;;;;;5.00;4.60;;;15.00;99.90;;;;;;6072670;23;20441;-70
2022/09/05 03:39:46;;;;;;;6.37;5.87;;;15.00;99.90;;;;;;6086653;23;20484;-70
2022/09/05 03:42:25;;;;;;;6.10;5.50;;;15.00;99.90;;;;;;6086079;23;20442;-70
2022/09/05 03:45:14;;;;;;;5.70;5.20;;;15.10;99.90;;;;;;6074187;23;20441;-70
2022/09/05 03:48:16;;;;;;;6.57;5.63;;;15.10;99.90;;;;;;6077194;23;20493;-70
2022/09/05 03:50:58;;;;;;;6.07;5.57;;;15.20;99.90;;;;;;6040826;23;20473;-70
2022/09/05 03:53:52;;;;;;;5.37;4.97;;;15.30;99.90;;;;;;6090416;23;20967;-70
2022/09/05 03:56:55;;;;;;;6.97;5.47;;;15.30;99.90;;;;;;6083126;23;20441;-70
2022/09/05 03:59:49;;;;;;;6.33;5.73;;;15.40;99.90;;;;;;6073230;23;20496;-68
2022/09/05 04:02:22;;;;;;;6.17;5.37;;;15.30;99.90;;;;;;6084581;23;20492;-69
2022/09/05 04:04:53;;;;;;;5.60;5.10;;;15.30;99.90;;;;;;6087717;23;20434;-69
2022/09/05 04:07:25;;;;;;;6.83;5.70;;;15.20;99.90;;;;;;6085848;23;20478;-69
2022/09/05 04:09:59;;;;;;;6.00;5.50;;;15.30;99.90;;;;;;6089834;23;20548;-69
2022/09/05 04:12:30;;;;;;;6.60;6.00;;;15.30;99.90;;;;;;6089217;23;20445;-69
2022/09/05 04:15:03;;;;;;;5.57;5.07;;;15.30;99.90;;;;;;6088166;23;20486;-69
2022/09/05 04:17:36;;;;;;;5.97;5.47;;;15.20;99.90;;;;;;6087738;23;20437;-69
2022/09/05 04:20:11;;;;;;;5.97;5.47;;;15.30;99.90;;;;;;6068921;23;20473;-69
2022/09/05 04:23:00;;;;;;;6.70;5.30;;;15.20;99.90;;;;;;6068237;23;20438;-69
2022/09/05 04:25:44;;;;;;;7.23;6.47;;;15.20;99.90;;;;;;6089563;23;20466;-69
2022/09/05 04:28:20;;;;;;;6.23;5.63;;;15.20;99.90;;;;;;6075948;23;20442;-69
2022/09/05 04:30:51;;;;;;;7.37;6.67;;;15.10;99.90;;;;;;6086108;23;20560;-69
2022/09/05 04:33:21;;;;;;;7.30;6.57;;;15.10;99.90;;;;;;6088095;23;20437;-69
2022/09/05 04:35:58;;;;;;;7.30;6.60;;;15.10;99.90;;;;;;6091014;23;20457;-69
2022/09/05 04:38:37;;;;;;;7.57;6.77;;;15.00;99.90;;;;;;6086137;23;20442;-68
2022/09/05 04:41:08;;;;;;;7.30;6.70;;;15.00;99.90;;;;;;6063569;23;20464;-69
2022/09/05 04:43:40;;;;;;;6.90;6.20;;;15.00;99.90;;;;;;6088528;23;20434;-69
2022/09/05 04:46:14;;;;;;;7.00;6.40;;;15.00;99.90;;;;;;6086821;23;20541;-69
2022/09/05 04:48:53;;;;;;;6.87;6.23;;;15.00;99.90;;;;;;6085745;23;20498;-69
2022/09/05 04:51:41;;;;;;;7.00;5.97;;;15.00;99.90;;;;;;6089134;23;20527;-69
2022/09/05 04:54:34;;;;;;;7.20;6.13;;;15.00;99.90;;;;;;6087085;23;20912;-69
2022/09/05 04:57:15;;;;;;;6.87;6.27;;;15.00;99.90;;;;;;6076600;23;20458;-70
2022/09/05 04:59:49;;;;;;;6.10;5.60;;;15.00;99.90;;;;;;6087081;23;20440;-70
2022/09/05 05:02:21;;;;;;;6.10;5.60;;;15.00;99.90;;;;;;6084144;23;20465;-69
2022/09/05 05:07:30;;;;;;;5.90;5.50;;;15.00;99.90;;;;;;5202105;22;21575;-66
2022/09/05 05:10:00;;;;;;;6.60;5.93;;;14.90;99.90;;;;;;5061245;28;20501;-66
2022/09/05 05:12:46;;;;;;;6.90;6.30;;;14.90;99.90;;;;;;5058599;28;20467;-67
2022/09/05 05:15:17;;;;;;;6.47;5.93;;;15.00;99.90;;;;;;5065843;28;20505;-66
2022/09/05 05:17:51;;;;;;;6.57;6.07;;;15.00;99.90;;;;;;5063086;28;20466;-66
2022/09/05 05:20:24;;;;;;;6.40;5.80;;;15.00;99.90;;;;;;5052887;28;20502;-67
2022/09/05 05:23:01;;;;;;;6.70;6.07;;;15.00;99.90;;;;;;5067714;28;20571;-67
2022/09/05 05:25:31;;;;;;;14.47;5.90;;;15.10;99.90;;;;;;5065087;28;20522;-67
2022/09/05 05:28:10;;;;;;;5.90;5.50;;;15.10;99.90;;;;;;5058019;28;20454;-67
2022/09/05 05:30:38;;;;;;;6.53;5.93;;;15.10;99.90;;;;;;5052144;28;20569;-67
2022/09/05 05:33:18;;;;;;;5.37;5.00;;;15.10;99.90;;;;;;5068768;28;20451;-66
2022/09/05 05:35:48;;;;;;;6.20;5.70;;;15.00;99.90;;;;;;5053490;28;21064;-66
2022/09/05 05:38:28;;;;;;;6.10;5.70;;;15.00;99.90;;;;;;5061770;28;20465;-67
2022/09/05 05:41:05;;;;;;;6.13;5.60;;;15.00;99.90;;;;;;5055565;28;20513;-67
2022/09/05 05:43:38;;;;;;;6.37;5.87;;;15.00;99.90;;;;;;5054159;28;20486;-67
2022/09/05 05:46:06;;;;;;;5.67;5.13;;;15.10;99.90;;;;;;5060371;28;20502;-68
2022/09/05 05:48:38;;;;;;;5.93;5.53;;;15.20;99.90;;;;;;5056488;28;20450;-68
2022/09/05 05:51:23;;;;;;;6.53;5.93;;;15.30;99.90;;;;;;5064586;28;20490;-67
2022/09/05 05:54:00;;;;;;;5.87;5.47;;;15.40;99.90;;;;;;5063715;28;20549;-67
2022/09/05 05:56:45;;;;;;;6.03;5.50;;;15.40;99.90;;;;;;5056653;28;20566;-67
2022/09/05 05:59:40;;;;;;;6.03;5.40;;;15.50;99.90;;;;;;5059843;28;20450;-67
2022/09/05 06:03:01;;;;;;;6.37;5.87;;;15.60;99.90;;;;;;5053862;28;20550;-68
2022/09/05 06:06:05;;;;;;;6.83;5.60;;;15.70;99.90;;;;;;5053460;28;21000;-67
2022/09/05 06:09:14;;;;;;;6.70;5.80;;;15.70;99.90;;;;;;4981200;28;20462;-67
2022/09/05 06:12:17;;;;;;;5.50;5.00;;;15.70;99.90;;;;;;5058608;28;20485;-73
2022/09/05 06:15:13;;;;;;;6.47;5.93;;;15.80;99.90;;;;;;5054731;28;20460;-69
2022/09/05 06:18:18;;;;;;;6.20;5.57;;;15.90;99.90;;;;;;5065679;28;20446;-68
2022/09/05 06:21:09;;;;;;;5.43;4.93;;;16.10;99.90;;;;;;5051501;28;20479;-68
2022/09/05 06:24:21;;;;;;;6.17;5.57;;;16.20;99.90;;;;;;5067575;28;20451;-69
2022/09/05 06:27:18;;;;;;;6.33;5.67;;;16.30;99.90;;;;;;5009144;28;20487;-71
2022/09/05 06:29:57;;;;;;;6.07;5.47;;;16.50;99.90;;;;;;5054103;28;20459;-70
2022/09/05 06:32:36;;;;;;;6.60;5.80;;;16.70;99.90;;;;;;5065315;28;20504;-72
2022/09/05 06:35:26;;;;;;;5.90;5.40;;;16.90;99.90;;;;;;5060561;28;20482;-69
2022/09/05 06:38:22;;;;;;;4.97;4.60;;;17.10;99.90;;;;;;5056962;28;20494;-72
2022/09/05 06:41:02;;;;;;;5.23;4.80;;;17.40;99.90;;;;;;5057985;28;20472;-72
2022/09/05 06:43:46;;;;;;;5.97;5.47;;;17.70;99.90;;;;;;5059798;28;20455;-72
2022/09/05 06:46:29;;;;;;;5.00;4.50;;;18.00;99.90;;;;;;5052973;28;20482;-72
2022/09/05 06:49:00;;;;;;;5.10;4.60;;;18.30;99.90;;;;;;5050716;28;20458;-72
2022/09/05 06:52:12;;;;;;;4.73;4.33;;;18.60;99.90;;;;;;5053106;28;20901;-73
2022/09/05 06:55:02;;;;;;;5.10;4.40;;;18.90;99.90;;;;;;5045985;28;20450;-72
2022/09/05 06:57:54;;;;;;;5.30;4.80;;;19.00;99.90;;;;;;5070534;28;20463;-72
2022/09/05 07:00:24;;;;;;;5.53;4.80;;;19.10;99.90;;;;;;5062090;28;20490;-74
2022/09/05 07:03:09;;;;;;;5.10;4.57;;;19.30;99.90;;;;;;5064395;28;20473;-72
2022/09/05 07:05:41;;;;;;;5.10;4.60;;;19.40;99.90;;;;;;5056508;28;20629;-73
2022/09/05 07:08:20;;;;;;;4.60;4.17;;;19.60;99.90;;;;;;5041338;28;21195;-73
2022/09/05 07:10:57;;;;;;;4.47;4.00;;;19.80;99.90;;;;;;5051155;28;20478;-73
2022/09/05 07:13:32;;;;;;;4.27;3.87;;;20.00;99.90;;;;;;5053030;28;20455;-73
2022/09/05 07:16:08;;;;;;;6.90;4.70;;;19.80;99.90;;;;;;5060226;28;20590;-73
2022/09/05 07:18:46;;;;;;;5.60;4.20;;;19.80;99.90;;;;;;5057855;28;20956;-74
2022/09/05 07:21:20;;;;;;;4.70;4.30;;;19.80;99.90;;;;;;5059283;28;20470;-73
2022/09/05 07:23:52;;;;;;;4.33;3.97;;;19.90;99.90;;;;;;5056022;28;20499;-73
2022/09/05 07:26:21;;;;;;;6.23;3.90;;;20.00;99.90;;;;;;5059000;28;20471;-73
2022/09/05 07:28:53;;;;;;;5.73;4.67;;;20.20;99.90;;;;;;5060097;28;20538;-73
2022/09/05 07:31:25;;;;;;;5.10;3.80;;;20.50;99.90;;;;;;5055190;28;20490;-74
2022/09/05 07:34:08;;;;;;;4.10;3.67;;;21.00;99.90;;;;;;5053494;28;20541;-74
2022/09/05 07:36:41;;;;;;;5.33;3.80;;;21.50;99.90;;;;;;5057174;28;20565;-74
2022/09/05 07:39:10;;;;;;;5.30;4.00;;;22.00;99.90;;;;;;5056564;28;20529;-72
2022/09/05 07:41:42;;;;;;;4.23;3.83;;;22.20;99.90;;;;;;5053607;28;20977;-76
2022/09/05 07:44:16;;;;;;;5.23;3.70;;;22.30;99.90;;;;;;5059834;28;20460;-82
2022/09/05 07:46:48;;;;;;;4.07;3.37;;;22.60;99.90;;;;;;5058528;28;20542;-73
2022/09/05 07:49:19;;;;;;;4.73;3.40;;;23.00;99.90;;;;;;5055146;28;20462;-73
2022/09/05 07:51:52;;;;;;;4.57;2.93;;;23.30;99.90;;;;;;5056183;28;20482;-73
2022/09/05 07:54:24;;;;;;;3.63;3.13;;;23.60;99.90;;;;;;5062390;28;21060;-73
2022/09/05 07:56:54;;;;;;;2.73;2.50;;;23.60;99.90;;;;;;5063961;28;20464;-73
2022/09/05 07:59:25;;;;;;;4.57;2.60;;;23.80;99.90;;;;;;5056411;28;20515;-73
2022/09/05 08:01:54;;;;;;;3.00;2.60;;;24.10;99.90;;;;;;5057058;28;20498;-73
2022/09/05 08:04:26;;;;;;;3.60;3.10;;;24.50;99.90;;;;;;5059000;28;21019;-73
2022/09/05 08:06:56;;;;;;;3.13;2.90;;;24.70;99.90;;;;;;5062445;28;20459;-73
2022/09/05 08:09:27;;;;;;;3.10;2.60;;;24.90;99.90;;;;;;5072526;28;20848;-73
2022/09/05 08:12:00;;;;;;;3.10;2.80;;;25.00;99.90;;;;;;5055880;28;20519;-73
2022/09/05 08:14:42;;;;;;;2.60;2.40;;;25.00;99.90;;;;;;5053087;28;20483;-73
2022/09/05 08:17:14;;;;;;;2.27;2.07;;;24.90;99.90;;;;;;5059720;28;20533;-73
2022/09/05 08:20:17;;;;;;;2.90;2.60;;;24.90;99.90;;;;;;5062983;28;20527;-73
2022/09/05 08:22:49;;;;;;;2.30;2.20;;;25.20;99.90;;;;;;5046738;28;20957;-73
2022/09/05 08:25:20;;;;;;;2.47;2.27;;;25.40;99.90;;;;;;5062371;28;20802;-73
2022/09/05 08:28:00;;;;;;;2.70;2.47;;;25.60;99.90;;;;;;5054386;28;20463;-72
2022/09/05 08:30:29;;;;;;;2.67;2.10;;;26.00;99.90;;;;;;5068297;28;20503;-73
2022/09/05 08:33:01;;;;;;;2.13;2.00;;;26.50;99.90;;;;;;5060946;28;20582;-73
2022/09/05 08:35:38;;;;;;;2.47;2.27;;;27.00;99.90;;;;;;5069856;28;20474;-73
2022/09/05 08:38:07;;;;;;;2.70;2.50;;;27.10;99.90;;;;;;5067480;28;20595;-73
2022/09/05 08:40:38;;;;;;;4.30;2.47;;;27.40;99.90;;;;;;5071958;28;20461;-74
2022/09/05 08:43:15;;;;;;;2.50;2.30;;;27.60;99.90;;;;;;5070193;28;20542;-73
2022/09/05 08:45:48;;;;;;;2.40;2.20;;;27.70;99.90;;;;;;5052923;28;20469;-73
2022/09/05 08:48:22;;;;;;;2.77;2.40;;;27.60;99.90;;;;;;5068583;28;20454;-73
2022/09/05 08:51:20;;;;;;;3.60;2.40;;;27.80;99.90;;;;;;5065912;28;20485;-73
2022/09/05 08:54:03;;;;;;;2.60;2.40;;;27.70;99.90;;;;;;5062498;28;20470;-73
2022/09/05 08:56:37;;;;;;;2.10;2.00;;;27.80;99.90;;;;;;5058878;28;20895;-73
2022/09/05 08:59:19;;;;;;;2.40;2.20;;;27.90;99.60;;;;;;5063441;28;20497;-73
2022/09/05 09:02:03;;;;;;;2.83;2.60;;;28.10;99.90;;;;;;5059384;28;20553;-73
2022/09/05 09:04:39;;;;;;;2.57;2.20;;;28.60;98.10;;;;;;5055725;28;20486;-73
2022/09/05 09:07:13;;;;;;;2.33;2.13;;;29.10;97.70;;;;;;5062454;28;20530;-74
2022/09/05 09:09:48;;;;;;;2.10;2.00;;;29.60;96.10;;;;;;5058111;28;20488;-73
2022/09/05 09:12:44;;;;;;;2.20;2.00;;;29.80;95.20;;;;;;5067127;28;20504;-73
2022/09/05 09:15:19;;;;;;;2.50;2.37;;;30.00;95.40;;;;;;5059756;28;20497;-73
2022/09/05 09:17:48;;;;;;;2.47;2.27;;;30.10;94.00;;;;;;5059239;28;21018;-73
2022/09/05 09:20:32;;;;;;;2.60;2.40;;;30.50;94.60;;;;;;5061397;28;20545;-74
2022/09/05 09:23:04;;;;;;;2.33;2.13;;;30.70;93.10;;;;;;5062843;28;20492;-74
2022/09/05 09:25:38;;;;;;;2.60;2.40;;;30.60;91.80;;;;;;5061608;28;20481;-73
2022/09/05 09:28:34;;;;;;;3.10;2.23;;;30.60;91.60;;;;;;5071568;28;20462;-73
2022/09/05 09:31:11;;;;;;;3.00;2.60;;;30.50;91.80;;;;;;5058460;28;20533;-73
2022/09/05 09:33:43;;;;;;;2.00;1.90;;;30.40;91.70;;;;;;5051364;28;20542;-73
2022/09/05 09:36:40;;;;;;;2.50;2.30;;;30.10;91.00;;;;;;5058443;28;20482;-73
2022/09/05 09:39:22;;;;;;;2.00;1.90;;;29.80;91.50;;;;;;5024245;28;20499;-73
2022/09/05 09:42:02;;;;;;;2.30;2.17;;;29.70;91.60;;;;;;5058817;28;20471;-73
2022/09/05 09:44:52;;;;;;;2.63;2.43;;;30.20;91.60;;;;;;5056376;28;20513;-73
2022/09/05 09:47:42;;;;;;;2.00;1.80;;;30.40;91.90;;;;;;5068485;28;20529;-73
2022/09/05 09:50:29;;;;;;;3.00;2.07;;;30.90;91.00;;;;;;5060872;28;20462;-73
2022/09/05 09:53:12;;;;;;;2.10;2.00;;;31.50;88.30;;;;;;5060068;28;20597;-73
2022/09/05 09:56:19;;;;;;;2.10;2.00;;;31.50;87.00;;;;;;5063304;28;20470;-73
2022/09/05 09:59:12;;;;;;;2.30;2.13;;;31.60;87.30;;;;;;5059628;28;20529;-73
2022/09/05 10:01:52;;;;;;;3.63;2.00;;;31.60;85.60;;;;;;5063577;28;20455;-73
2022/09/05 10:04:53;;;;;;;2.20;2.00;;;30.90;85.20;;;;;;5059311;28;20501;-73
2022/09/05 10:07:53;;;;;;;3.10;2.03;;;30.30;89.50;;;;;;5005739;28;20576;-73
2022/09/05 10:10:58;;;;;;;2.40;2.20;;;30.00;88.40;;;;;;5065062;28;20907;-73
2022/09/05 10:13:41;;;;;;;2.20;2.00;;;30.10;88.70;;;;;;5057414;28;20489;-73
2022/09/05 10:16:40;;;;;;;2.23;1.90;;;30.30;87.60;;;;;;5061894;28;20482;-73
2022/09/05 10:19:36;;;;;;;2.13;2.03;;;30.40;88.10;;;;;;5062509;28;20509;-73
2022/09/05 10:22:20;;;;;;;2.60;2.20;;;30.60;86.80;;;;;;5057123;28;20458;-73
2022/09/05 10:25:15;;;;;;;2.10;1.90;;;31.00;85.20;;;;;;5054514;28;20989;-73
2022/09/05 10:28:04;;;;;;;2.03;1.93;;;31.50;84.20;;;;;;5063279;28;20502;-73
2022/09/05 10:30:45;;;;;;;2.00;1.80;;;31.70;82.80;;;;;;5064668;28;20450;-73
2022/09/05 10:33:38;;;;;;;2.40;2.10;;;31.90;81.60;;;;;;5065030;28;20525;-71
2022/09/05 10:36:23;;;;;;;2.30;1.80;;;32.40;78.50;;;;;;5054813;28;20478;-71
2022/09/05 10:39:00;;;;;;;2.73;2.07;;;32.30;78.50;;;;;;5053732;28;20550;-71
2022/09/05 10:41:38;;;;;;;2.07;1.80;;;32.70;78.20;;;;;;5057817;28;20457;-73
2022/09/05 10:44:09;;;;;;;2.03;1.87;;;33.40;76.30;;;;;;5062936;28;20807;-73
2022/09/05 10:46:47;;;;;;;2.10;2.00;;;33.90;74.20;;;;;;5062510;28;20450;-73
2022/09/05 10:49:15;;;;;;;2.03;1.83;;;34.20;72.40;;;;;;5061351;28;20455;-73
2022/09/05 10:51:48;;;;;;;1.80;1.70;;;34.20;69.80;;;;;;5064576;28;20497;-73
2022/09/05 10:54:39;;;;;;;2.37;1.70;;;34.50;70.40;;;;;;5064920;28;20562;-73
2022/09/05 10:57:20;;;;;;;1.80;1.70;;;34.80;69.90;;;;;;5053216;28;21161;-74
2022/09/05 11:00:04;;;;;;;1.70;1.60;;;35.20;65.90;;;;;;5057878;28;20486;-73
2022/09/05 11:02:32;;;;;;;2.00;1.90;;;34.60;66.00;;;;;;5066004;28;20484;-73
2022/09/05 11:05:08;;;;;;;3.57;2.07;;;34.70;62.70;;;;;;5068319;28;20498;-73
2022/09/05 11:07:41;;;;;;;2.70;1.80;;;34.30;63.30;;;;;;5058294;28;20458;-73
2022/09/05 11:10:13;;;;;;;1.90;1.80;;;34.10;62.80;;;;;;5062371;28;20931;-73
2022/09/05 11:12:55;;;;;;;1.67;1.57;;;33.90;63.10;;;;;;5064354;28;21794;-73
2022/09/05 11:15:32;;;;;;;2.00;1.90;;;34.20;63.10;;;;;;5057814;28;20489;-73
2022/09/05 11:18:03;;;;;;;2.43;2.00;;;34.20;61.20;;;;;;5061853;28;20544;-72
2022/09/05 11:20:48;;;;;;;1.80;1.70;;;33.90;59.90;;;;;;5062155;28;20462;-74
2022/09/05 11:23:20;;;;;;;1.80;1.70;;;34.00;59.90;;;;;;5059222;28;20950;-73
2022/09/05 11:25:57;;;;;;;1.90;1.80;;;34.20;59.20;;;;;;5063645;28;20446;-73
2022/09/05 11:28:34;;;;;;;1.80;1.70;;;34.60;61.00;;;;;;5072030;28;20449;-73
2022/09/05 11:31:09;;;;;;;2.40;1.90;;;35.20;59.80;;;;;;5068891;28;20465;-73
2022/09/05 11:34:08;;;;;;;2.80;1.63;;;35.70;56.10;;;;;;5063537;28;20929;-73
2022/09/05 11:36:43;;;;;;;1.93;1.83;;;35.30;56.60;;;;;;5057271;28;20498;-73
2022/09/05 11:39:35;;;;;;;1.70;1.60;;;35.30;56.10;;;;;;5066017;28;20457;-73
2022/09/05 11:42:30;;;;;;;1.83;1.73;;;35.40;57.00;;;;;;5066542;28;20549;-73
2022/09/05 11:45:36;;;;;;;1.90;1.80;;;35.00;56.60;;;;;;5066800;28;20557;-73
2022/09/05 11:48:31;;;;;;;1.80;1.70;;;34.90;55.00;;;;;;5051287;28;20458;-73
2022/09/05 11:51:38;;;;;;;1.70;1.60;;;35.00;54.20;;;;;;5057205;28;20466;-73
2022/09/05 11:54:38;;;;;;;2.10;2.00;;;35.30;54.80;;;;;;5061214;28;20490;-73
2022/09/05 11:57:33;;;;;;;1.60;1.50;;;35.80;53.60;;;;;;5063274;28;20458;-73
2022/09/05 12:00:24;;;;;;;2.90;1.77;;;35.90;53.20;;;;;;5062197;28;20459;-73
2022/09/05 12:03:41;;;;;;;2.20;2.03;;;36.10;52.10;;;;;;5048677;28;20466;-73
2022/09/05 12:06:40;;;;;;;1.80;1.70;;;35.50;52.80;;;;;;4995388;28;20961;-73
2022/09/05 12:09:17;;;;;;;1.80;1.70;;;35.70;53.60;;;;;;5005780;28;20579;-73
2022/09/05 12:11:58;;;;;;;1.90;1.80;;;36.10;52.90;;;;;;5049028;28;20458;-73
2022/09/05 12:14:37;;;;;;;2.10;2.00;;;36.60;52.00;;;;;;5059331;28;20475;-73
2022/09/05 12:17:17;;;;;;;2.10;1.80;;;37.10;50.90;;;;;;5055140;28;20544;-73
2022/09/05 12:19:53;;;;;;;2.63;1.90;;;37.60;50.70;;;;;;5060149;28;21172;-74
2022/09/05 12:22:28;;;;;;;1.90;1.80;;;37.90;51.30;;;;;;5059987;28;20571;-72
2022/09/05 12:25:17;;;;;;;2.20;1.90;;;38.20;49.90;;;;;;5064653;28;20568;-72
2022/09/05 12:27:47;;;;;;;3.50;1.97;;;38.50;49.70;;;;;;5063132;28;20994;-73
2022/09/05 12:30:23;;;;;;;2.30;2.10;;;38.60;49.00;;;;;;5066396;28;20451;-87
2022/09/05 12:32:51;;;;;;;3.30;2.00;;;38.80;48.70;;;;;;5059628;28;20509;-74
2022/09/05 12:35:30;;;;;;;2.03;1.77;;;39.10;48.10;;;;;;5064998;28;20482;-72
2022/09/05 12:38:09;;;;;;;2.13;2.03;;;39.40;47.60;;;;;;5059172;28;20467;-73
2022/09/05 12:40:41;;;;;;;2.20;2.00;;;39.50;47.00;;;;;;5053918;28;20509;-73
2022/09/05 12:43:11;;;;;;;2.10;1.90;;;39.50;46.90;;;;;;5061942;28;20454;-72
2022/09/05 12:45:44;;;;;;;3.17;2.03;;;39.60;46.90;;;;;;5059367;28;20451;-73
2022/09/05 12:48:14;;;;;;;2.07;1.97;;;39.90;46.50;;;;;;5058736;28;20463;-74
2022/09/05 12:50:53;;;;;;;2.47;2.27;;;40.20;45.70;;;;;;5059933;28;20458;-73
2022/09/05 12:53:23;;;;;;;1.83;1.70;;;39.90;44.70;;;;;;5055976;28;20486;-72
2022/09/05 12:55:54;;;;;;;1.93;1.83;;;39.90;45.50;;;;;;5069895;28;20455;-70
2022/09/05 12:58:27;;;;;;;2.03;1.83;;;39.70;44.70;;;;;;5055430;28;20493;-72
2022/09/05 13:01:18;;;;;;;2.70;2.27;;;39.40;44.50;;;;;;5062503;28;20538;-69
2022/09/05 13:03:50;;;;;;;2.50;2.13;;;39.10;45.40;;;;;;5054357;28;21049;-69
2022/09/05 13:06:23;;;;;;;2.20;1.80;;;38.90;47.20;;;;;;5056277;28;20758;-69
2022/09/05 13:08:57;;;;;;;2.27;1.90;;;38.40;45.00;;;;;;5060791;28;20927;-69
2022/09/05 13:11:24;;;;;;;2.23;1.80;;;38.20;47.10;;;;;;5074364;28;20484;-69
2022/09/05 13:13:54;;;;;;;3.20;2.10;;;37.60;46.00;;;;;;5067316;28;20588;-69
2022/09/05 13:16:30;;;;;;;2.70;2.20;;;37.10;46.30;;;;;;5061695;28;21056;-69
2022/09/05 13:19:06;;;;;;;3.13;2.00;;;36.50;46.80;;;;;;5067712;28;20458;-69
2022/09/05 13:21:38;;;;;;;1.90;1.80;;;36.00;49.10;;;;;;5056714;28;20556;-69
2022/09/05 13:24:11;;;;;;;2.37;2.23;;;35.50;49.20;;;;;;5065898;28;20562;-69
2022/09/05 13:26:42;;;;;;;2.53;2.33;;;34.90;49.50;;;;;;5068194;28;20447;-69
2022/09/05 13:29:14;;;;;;;2.00;1.90;;;34.70;49.60;;;;;;5063612;28;20465;-75
2022/09/05 13:32:14;;;;;;;2.90;1.97;;;34.30;50.00;;;;;;5048843;28;20587;-70
2022/09/05 13:34:45;;;;;;;2.20;2.10;;;33.90;50.20;;;;;;5062289;28;20481;-69
2022/09/05 13:37:19;;;;;;;2.50;2.30;;;33.60;50.60;;;;;;5061218;28;20446;-69
2022/09/05 13:39:55;;;;;;;2.33;2.00;;;33.20;50.70;;;;;;5063431;28;20494;-69
2022/09/05 13:42:26;;;;;;;1.90;1.80;;;32.70;52.00;;;;;;5054382;28;20879;-69
2022/09/05 13:44:57;;;;;;;2.23;2.03;;;32.20;53.70;;;;;;5064381;28;20485;-69
2022/09/05 13:47:50;;;;;;;2.77;2.50;;;32.00;53.80;;;;;;5063763;28;20515;-68
2022/09/05 13:50:25;;;;;;;2.00;1.90;;;32.10;54.30;;;;;;5059097;28;20805;-69
2022/09/05 13:52:56;;;;;;;2.20;2.10;;;32.60;54.10;;;;;;5063627;28;20483;-69
2022/09/05 13:55:36;;;;;;;1.80;1.70;;;32.70;52.00;;;;;;5055265;28;20956;-68
2022/09/05 13:58:09;;;;;;;2.33;1.93;;;32.60;52.70;;;;;;5052651;28;20458;-76
2022/09/05 14:01:10;;;;;;;2.90;2.10;;;32.70;53.00;;;;;;5060729;28;20538;-75
2022/09/05 14:04:22;;;;;;;2.57;2.37;;;33.30;51.90;;;;;;5058782;28;20500;-69